Airfield :







YOU CAN JOIN US ON...

 
LOGIN :

Register | Disclaimer

   EN    FR    IT 

 









Legend :    VFR   Marginal VFR   IFR   Intensive IFR   Very Intensive IFR
Visi :
Ceiling :
>= 8 km
>= 3000ft
5 to 8 km
1000 to 3000 ft
1500m to 5 km
500 to 1000 ft
800 to 1500m
200 to 500 ft
< 800m
< 200 ft
Symbols :   Thunderstorms  Fog  Heavy snow  Heavy precipitations  Wind > 20 kt






- Airport Elevation : 285 ft
- IATA code : ALB


KALB - Albany International

CURRENT METAR :
  • 220151Z 23009G22KT 4SM -TSRA BR SCT025 SCT055CB OVC090 21/20 A2957 RMK AO2 PK WND 24039/0132 WSHFT 0124 LTG DSNT ALQDS RAB04 TSB10 SLP011 CONS LTGICCG VC NE-SE-S TS VC NE-SE-S MOV NE P0015 T02110200

EXPIRED METARs :
  • 220144Z 23013G29KT 3/4SM R01/P6000FT +TSRA BR FEW019 BKN050CB OVC090 21/20 A2958 RMK AO2 PK WND 24039/0132 WSHFT 0124 LTG DSNT ALQDS RAB04 TSB10 FRQ LTGICCG ALQDS TS ALQDS MOV NE P0015 T02110200
  • 220134Z 23024G39KT 2SM R01/4500VP6000FT -TSRA FEW035 SCT060CB SCT090 OVC230 24/21 A2959 RMK AO2 PK WND 24039/0132 LTG DSNT SW-N RAB04 TSB10 PRESRR FRQ LTGICCG N-OHD-S TS N-OHD-S MOV NE P0000 T02440211
  • 220110Z 16014G21KT 10SM -TSRA FEW045 SCT065CB SCT090 OVC230 27/21 A2951 RMK AO2 LTG DSNT SW-N RAB04 TSB10 FRQ LTGICCG VC W-N TS VC W-N MOV NE P0000 T02720211
  • 220051Z 16010G21KT 10SM FEW045 FEW075 SCT110 BKN230 27/21 A2951 RMK AO2 LTG DSNT W-N SLP992 T02720211
  • 212351Z 15011KT 10SM FEW040 FEW065 SCT110 BKN160 28/21 A2951 RMK AO2 SLP992 T02780211 10300 20278 55003

TAF KALB
Valid from the 22 at 00:00 until the 23 at 00:00 UTC


212345Z 2200/2224 16014G23KT P6SM SCT040 BKN150
TEMPO 2201/2203 28025G35KT 1 1/2SM -TSRA BR BKN025CB
FM220300 24010KT P6SM VCSH SCT020 BKN030
FM220800 29008KT P6SM SCT030 OVC080
FM221100 31006KT P6SM SCT020 OVC060
PROB30 2212/2214 5SM -SHRA BKN020
FM221400 30007KT 4SM -RA BR OVC020
FM221900 32010G16KT P6SM SCT020 OVC050
KZBW FIR / North America



MET'MAP, your aeronautical weather chart ! - Copyright ORBIFLY December 2007 - Disclaimer

ORBIFLY MET'MAP TEAM :

Programming & Development : Alexandra Zaïnal
Concept & original design : Baudouin d'Aumeries
Assistance for programming : Marc-Olivier Méhu
Technical & hardware support : Manuel Goepfert

Contact : metmap@orbifly.com




SOURCES & CREDITS :

   NOAA